createdAt,value
2023-02-09T00:01:31.298Z,4.18
2023-02-09T00:03:59.788Z,8.88
2023-02-09T00:06:29.770Z,4.97
2023-02-09T00:08:57.712Z,7.18
2023-02-09T00:11:47.519Z,4.72
2023-02-09T00:14:16.502Z,6.20
2023-02-09T00:16:43.797Z,7.28
2023-02-09T00:19:11.668Z,8.43
2023-02-09T00:21:39.336Z,7.47
2023-02-09T00:24:07.119Z,7.25
2023-02-09T00:26:34.408Z,4.13
2023-02-09T00:29:01.372Z,7.65
2023-02-09T00:31:28.454Z,6.82
2023-02-09T00:33:55.584Z,4.88
2023-02-09T00:36:22.539Z,6.72
2023-02-09T00:38:49.338Z,8.02
2023-02-09T00:41:16.693Z,6.30
2023-02-09T00:43:43.649Z,6.93
2023-02-09T00:46:10.553Z,7.60
2023-02-09T00:48:37.380Z,11.38
2023-02-09T00:51:04.238Z,9.50
2023-02-09T00:53:31.051Z,9.52
2023-02-09T00:56:00.048Z,6.90
2023-02-09T00:58:26.968Z,7.35
2023-02-09T01:00:53.859Z,7.95
2023-02-09T01:03:20.740Z,6.57
2023-02-09T01:05:47.551Z,9.55
2023-02-09T01:08:14.292Z,7.22
2023-02-09T01:10:41.170Z,10.10
2023-02-09T01:13:08.491Z,7.38
2023-02-09T01:15:35.454Z,7.22
2023-02-09T01:18:02.197Z,7.13
2023-02-09T01:20:28.993Z,9.38
2023-02-09T01:22:55.854Z,8.02
2023-02-09T01:25:22.707Z,8.57
2023-02-09T01:27:49.759Z,8.35
2023-02-09T01:30:17.193Z,4.50
2023-02-09T01:32:44.256Z,4.22
2023-02-09T01:35:11.432Z,8.30
2023-02-09T01:37:38.345Z,5.97
2023-02-09T01:40:06.078Z,11.25
2023-02-09T01:42:33.253Z,5.80
2023-02-09T01:45:17.349Z,5.28
2023-02-09T01:47:49.970Z,4.85
2023-02-09T01:50:17.743Z,7.90
2023-02-09T01:52:46.637Z,7.13
2023-02-09T01:55:17.992Z,6.60
2023-02-09T01:58:09.332Z,4.75
2023-02-09T02:00:36.430Z,6.90
2023-02-09T02:03:07.568Z,7.72
2023-02-09T02:05:39.402Z,6.95
2023-02-09T02:08:24.570Z,7.25
2023-02-09T02:10:54.241Z,8.23
2023-02-09T02:13:21.387Z,5.95
2023-02-09T02:16:02.713Z,7.53
2023-02-09T02:18:38.690Z,7.47
2023-02-09T02:21:44.801Z,6.97
2023-02-09T02:24:49.267Z,5.97
2023-02-09T02:27:30.212Z,11.63
2023-02-09T02:30:03.886Z,9.65
2023-02-09T02:32:39.797Z,7.53
2023-02-09T02:35:25.819Z,9.15
2023-02-09T02:38:14.433Z,6.57
2023-02-09T02:40:45.506Z,4.18
2023-02-09T02:43:39.118Z,8.25
2023-02-09T02:46:13.220Z,9.60
2023-02-09T02:48:41.950Z,5.28
2023-02-09T02:51:13.822Z,5.32
2023-02-09T02:53:43.373Z,2.80
2023-02-09T02:56:14.258Z,6.22
2023-02-09T02:58:44.174Z,8.30
2023-02-09T03:01:14.493Z,6.18
2023-02-09T03:03:44.057Z,7.30
2023-02-09T03:06:12.367Z,10.45
2023-02-09T03:08:56.738Z,8.10
2023-02-09T03:11:30.621Z,7.25
2023-02-09T03:14:10.395Z,5.88
2023-02-09T03:17:18.718Z,7.60
2023-02-09T03:19:48.224Z,6.80
2023-02-09T03:22:43.262Z,6.07
2023-02-09T03:25:24.218Z,7.18
2023-02-09T03:27:59.028Z,7.80
2023-02-09T03:30:26.352Z,7.28
2023-02-09T03:32:56.459Z,7.47
2023-02-09T03:35:27.665Z,6.22
2023-02-09T03:37:54.465Z,5.10
2023-02-09T03:40:21.333Z,9.50
2023-02-09T03:42:49.155Z,4.90
2023-02-09T03:45:15.928Z,6.53
2023-02-09T03:47:42.733Z,6.22
2023-02-09T03:50:10.131Z,6.65
2023-02-09T03:52:36.960Z,4.40
2023-02-09T03:55:05.296Z,7.70
2023-02-09T03:57:32.159Z,6.60
2023-02-09T03:59:58.940Z,8.02
2023-02-09T04:02:26.033Z,4.35
2023-02-09T04:04:53.893Z,5.32
2023-02-09T04:07:20.772Z,11.23
2023-02-09T04:09:47.702Z,5.18
2023-02-09T04:12:14.614Z,8.20
2023-02-09T04:14:41.477Z,7.03
2023-02-09T04:17:08.300Z,7.07
2023-02-09T04:19:35.162Z,7.13
2023-02-09T04:22:02.038Z,9.20
2023-02-09T04:24:29.142Z,7.07
2023-02-09T04:26:56.013Z,11.05
2023-02-09T04:29:22.909Z,6.75
2023-02-09T04:31:49.813Z,11.68
2023-02-09T04:34:16.751Z,8.48
2023-02-09T04:36:44.363Z,6.72
2023-02-09T04:39:11.182Z,8.25
2023-02-09T04:41:38.050Z,7.82
2023-02-09T04:44:04.898Z,6.88
2023-02-09T04:46:31.690Z,7.55
2023-02-09T04:48:58.522Z,7.05
2023-02-09T04:51:25.420Z,8.07
2023-02-09T04:53:52.284Z,9.32
2023-02-09T04:56:19.116Z,7.80
2023-02-09T04:59:04.465Z,7.88
2023-02-09T05:01:31.546Z,17.67
2023-02-09T05:03:58.490Z,9.80
2023-02-09T05:06:25.366Z,10.52
2023-02-09T05:08:52.175Z,8.57
2023-02-09T05:11:19.028Z,8.52
2023-02-09T05:13:46.303Z,10.15
2023-02-09T05:16:15.898Z,11.20
2023-02-09T05:18:43.061Z,12.02
2023-02-09T05:21:09.936Z,11.88
2023-02-09T05:23:36.716Z,9.38
2023-02-09T05:26:03.555Z,12.85
2023-02-09T05:28:30.427Z,9.48
2023-02-09T05:30:57.332Z,20.35
2023-02-09T05:33:25.684Z,19.55
2023-02-09T05:35:55.895Z,11.32
2023-02-09T05:38:23.201Z,10.25
2023-02-09T05:40:50.321Z,11.07
2023-02-09T05:43:17.976Z,9.75
2023-02-09T05:45:46.122Z,10.80
2023-02-09T05:48:13.020Z,13.15
2023-02-09T05:50:40.079Z,12.52
2023-02-09T05:53:07.246Z,14.38
2023-02-09T05:55:34.029Z,13.55
2023-02-09T05:58:00.829Z,11.93
2023-02-09T06:00:29.819Z,12.95
2023-02-09T06:02:57.129Z,13.60
2023-02-09T06:05:24.414Z,17.75
2023-02-09T06:07:51.553Z,13.40
2023-02-09T06:10:19.655Z,19.30
2023-02-09T06:12:46.497Z,14.95
2023-02-09T06:15:16.462Z,15.63
2023-02-09T06:17:43.849Z,12.25
2023-02-09T06:20:11.378Z,18.65
2023-02-09T06:22:38.248Z,14.90
2023-02-09T06:25:05.428Z,14.38
2023-02-09T06:27:33.592Z,14.00
2023-02-09T06:30:00.435Z,11.95
2023-02-09T06:32:27.572Z,12.25
2023-02-09T06:34:55.418Z,13.48
2023-02-09T06:37:23.465Z,12.05
2023-02-09T06:39:51.051Z,14.18
2023-02-09T06:45:28.168Z,12.80
2023-02-09T06:47:54.953Z,16.25
2023-02-09T06:50:21.985Z,14.10
2023-02-09T06:52:48.941Z,17.77
2023-02-09T06:55:16.063Z,20.05
2023-02-09T06:57:44.135Z,13.85
2023-02-09T07:00:13.711Z,17.95
2023-02-09T07:02:45.653Z,20.17
2023-02-09T07:05:13.871Z,16.13
2023-02-09T07:07:49.072Z,16.70
2023-02-09T07:10:17.312Z,14.00
2023-02-09T07:12:47.184Z,20.23
2023-02-09T07:15:15.211Z,22.75
2023-02-09T07:17:42.872Z,26.63
2023-02-09T07:20:10.400Z,27.75
2023-02-09T07:22:37.348Z,36.25
2023-02-09T07:25:05.208Z,24.20
2023-02-09T07:27:32.060Z,33.92
2023-02-09T07:30:00.908Z,34.13
2023-02-09T07:32:28.139Z,19.35
2023-02-09T07:34:55.343Z,19.90
2023-02-09T07:37:22.807Z,18.38
2023-02-09T07:39:49.777Z,21.88
2023-02-09T07:42:16.828Z,17.30
2023-02-09T07:44:47.437Z,28.50
2023-02-09T07:47:15.290Z,20.83
2023-02-09T07:49:42.211Z,20.73
2023-02-09T07:52:09.081Z,19.92
2023-02-09T07:54:45.052Z,12.90
2023-02-09T07:57:13.574Z,20.50
2023-02-09T07:59:41.565Z,15.57
2023-02-09T08:02:18.639Z,13.23
2023-02-09T08:04:45.842Z,11.70
2023-02-09T08:07:12.683Z,12.98
2023-02-09T08:09:39.668Z,12.32
2023-02-09T08:12:08.684Z,15.13
2023-02-09T08:14:43.294Z,11.93
2023-02-09T08:17:21.136Z,12.85
2023-02-09T08:19:55.594Z,11.10
2023-02-09T08:22:25.315Z,15.57
2023-02-09T08:24:53.422Z,9.50
2023-02-09T08:27:20.573Z,12.27
2023-02-09T08:29:49.031Z,12.32
2023-02-09T08:32:16.270Z,12.63
2023-02-09T08:34:43.181Z,10.40
2023-02-09T08:37:10.124Z,13.80
2023-02-09T08:39:36.912Z,16.52
2023-02-09T08:42:04.103Z,12.77
2023-02-09T08:45:09.723Z,10.45
2023-02-09T08:47:36.777Z,9.25
2023-02-09T08:50:03.807Z,12.48
2023-02-09T08:52:30.638Z,12.13
2023-02-09T08:54:57.727Z,10.30
2023-02-09T08:57:38.138Z,10.77
2023-02-09T09:00:10.626Z,11.68
2023-02-09T09:02:37.652Z,9.88
2023-02-09T09:05:04.916Z,9.35
2023-02-09T09:07:31.716Z,9.93
2023-02-09T09:09:58.659Z,8.73
2023-02-09T09:12:25.706Z,11.20
2023-02-09T09:14:52.962Z,11.43
2023-02-09T09:17:19.785Z,9.13
2023-02-09T09:19:46.866Z,9.38
2023-02-09T09:22:13.967Z,11.15
2023-02-09T09:24:41.262Z,9.45
2023-02-09T09:27:10.585Z,9.00
2023-02-09T09:29:40.106Z,13.85
2023-02-09T09:32:07.795Z,9.65
2023-02-09T09:34:34.722Z,12.73
2023-02-09T09:37:01.579Z,13.43
2023-02-09T09:39:28.758Z,12.23
2023-02-09T09:41:59.723Z,9.77
2023-02-09T09:44:31.563Z,20.48
2023-02-09T09:47:03.030Z,10.93
2023-02-09T09:49:31.751Z,10.52
2023-02-09T09:52:28.780Z,24.48
2023-02-09T09:54:56.080Z,8.98
2023-02-09T09:57:28.373Z,12.38
2023-02-09T09:59:56.649Z,11.23
2023-02-09T10:02:32.551Z,16.83
2023-02-09T10:05:22.631Z,10.65
2023-02-09T10:08:21.991Z,13.70
2023-02-09T10:10:57.690Z,10.35
2023-02-09T10:13:25.670Z,27.65
2023-02-09T10:15:57.048Z,14.77
2023-02-09T10:18:27.437Z,23.17
2023-02-09T10:21:05.082Z,10.18
2023-02-09T10:23:48.540Z,11.30
2023-02-09T10:26:20.886Z,13.45
2023-02-09T10:28:51.643Z,12.95
2023-02-09T10:31:23.443Z,15.70
2023-02-09T10:33:56.858Z,7.10
2023-02-09T10:36:33.122Z,12.25
2023-02-09T10:39:12.111Z,12.80
2023-02-09T10:41:42.105Z,11.30
2023-02-09T10:44:15.867Z,12.80
2023-02-09T10:46:44.533Z,14.80
2023-02-09T10:49:35.743Z,12.10
2023-02-09T10:52:19.832Z,13.75
2023-02-09T10:54:49.670Z,22.75
2023-02-09T10:57:22.448Z,12.15
2023-02-09T10:59:56.632Z,14.77
2023-02-09T11:02:41.063Z,16.63
2023-02-09T11:05:26.783Z,12.57
2023-02-09T11:08:14.712Z,16.35
2023-02-09T11:11:05.992Z,14.02
2023-02-09T11:13:34.489Z,12.70
2023-02-09T11:16:19.685Z,18.63
2023-02-09T11:19:14.525Z,17.10
2023-02-09T11:22:12.281Z,11.95
2023-02-09T11:25:00.196Z,15.60
2023-02-09T11:27:42.506Z,12.07
2023-02-09T11:30:19.466Z,11.93
2023-02-09T11:32:46.349Z,11.48
2023-02-09T11:35:18.827Z,13.48
2023-02-09T11:40:55.719Z,14.70
2023-02-09T11:43:38.082Z,12.80
2023-02-09T11:46:14.729Z,13.82
2023-02-09T11:48:47.175Z,13.40
2023-02-09T11:53:51.391Z,13.20
2023-02-09T11:56:23.115Z,12.93
2023-02-09T11:58:55.676Z,24.30
2023-02-09T12:01:44.540Z,13.70
2023-02-09T12:04:17.349Z,16.02
2023-02-09T12:06:49.561Z,16.20
2023-02-09T12:09:34.466Z,15.68
2023-02-09T12:12:01.288Z,14.70
2023-02-09T12:14:37.073Z,13.48
2023-02-09T12:17:15.280Z,14.88
2023-02-09T12:19:46.042Z,15.80
2023-02-09T12:22:34.652Z,13.85
2023-02-09T12:25:16.294Z,17.02
2023-02-09T12:28:04.480Z,14.87
2023-02-09T12:30:43.240Z,23.75
2023-02-09T12:33:22.293Z,15.27
2023-02-09T12:35:58.288Z,17.88
2023-02-09T12:38:25.534Z,20.10
2023-02-09T12:41:04.352Z,19.92
2023-02-09T12:43:33.048Z,16.58
2023-02-09T12:46:23.341Z,16.40
2023-02-09T12:48:50.098Z,18.77
2023-02-09T12:51:57.020Z,18.10
2023-02-09T12:54:40.794Z,15.07
2023-02-09T12:57:20.309Z,15.40
2023-02-09T12:59:53.330Z,18.00
2023-02-09T13:03:02.130Z,16.35
2023-02-09T13:05:37.995Z,16.35
2023-02-09T13:08:15.925Z,19.73
2023-02-09T13:11:19.180Z,17.40
2023-02-09T13:13:57.789Z,16.92
2023-02-09T13:16:24.910Z,13.35
2023-02-09T13:22:31.365Z,16.33
2023-02-09T13:25:02.892Z,17.60
2023-02-09T13:27:31.300Z,21.00
2023-02-09T13:29:59.674Z,16.88
2023-02-09T13:32:47.764Z,16.15
2023-02-09T13:35:24.488Z,19.92
2023-02-09T13:38:00.176Z,16.65
2023-02-09T13:40:33.302Z,15.55
2023-02-09T13:43:10.768Z,20.42
2023-02-09T13:45:51.999Z,21.85
2023-02-09T13:48:27.253Z,16.98
2023-02-09T13:50:56.708Z,17.58
2023-02-09T13:53:25.385Z,21.30
2023-02-09T13:55:54.752Z,23.35
2023-02-09T13:58:31.067Z,20.17
2023-02-09T14:01:13.003Z,20.73
2023-02-09T14:03:58.489Z,15.48
2023-02-09T14:06:45.494Z,15.13
2023-02-09T14:09:22.057Z,19.27
2023-02-09T14:12:00.224Z,17.45
2023-02-09T14:15:01.415Z,18.88
2023-02-09T14:17:44.611Z,18.45
2023-02-09T14:20:27.458Z,20.42
2023-02-09T14:23:04.194Z,22.83
2023-02-09T14:25:31.786Z,15.52
2023-02-09T14:27:59.166Z,17.75
2023-02-09T14:30:36.310Z,19.95
2023-02-09T14:33:04.099Z,22.63
2023-02-09T14:35:39.877Z,22.27
2023-02-09T14:38:37.375Z,28.52
2023-02-09T14:41:30.897Z,20.23
2023-02-09T14:44:08.177Z,29.38
2023-02-09T14:46:56.654Z,52.85
2023-02-09T14:49:26.000Z,57.83
2023-02-09T14:52:06.788Z,28.73
2023-02-09T14:54:38.050Z,46.35
2023-02-09T14:57:09.357Z,26.00
2023-02-09T14:59:36.163Z,28.98
2023-02-09T15:02:16.038Z,23.00
2023-02-09T15:04:43.608Z,20.73
2023-02-09T15:07:14.710Z,17.58
2023-02-09T15:09:41.824Z,17.05
2023-02-09T15:12:21.364Z,19.45
2023-02-09T15:14:55.594Z,23.95
2023-02-09T15:17:28.957Z,19.58
2023-02-09T15:19:57.526Z,17.83
2023-02-09T15:22:25.226Z,15.05
2023-02-09T15:24:54.604Z,21.02
2023-02-09T15:27:26.118Z,25.50
2023-02-09T15:29:54.550Z,23.58
2023-02-09T15:32:23.051Z,17.65
2023-02-09T15:34:53.889Z,20.10
2023-02-09T15:37:26.607Z,21.13
2023-02-09T15:39:59.872Z,17.00
2023-02-09T15:42:45.449Z,25.58
2023-02-09T15:45:34.157Z,22.90
2023-02-09T15:48:01.020Z,24.70
2023-02-09T15:50:29.970Z,24.80
2023-02-09T15:52:58.299Z,26.08
2023-02-09T15:55:26.701Z,26.50
2023-02-09T15:57:54.390Z,27.15
2023-02-09T16:00:26.622Z,20.35
2023-02-09T16:02:55.147Z,22.27
2023-02-09T16:05:22.988Z,22.92
2023-02-09T16:07:51.616Z,24.38
2023-02-09T16:10:26.760Z,37.80
2023-02-09T16:12:54.783Z,66.72
2023-02-09T16:15:24.662Z,63.80
2023-02-09T16:17:51.894Z,93.13
2023-02-09T16:20:20.448Z,44.03
2023-02-09T16:22:56.158Z,45.20
2023-02-09T16:25:30.637Z,36.72
2023-02-09T16:27:58.199Z,30.98
2023-02-09T16:30:29.201Z,30.60
2023-02-09T16:32:56.427Z,26.17
2023-02-09T16:35:25.450Z,27.92
2023-02-09T16:38:02.425Z,23.00
2023-02-09T16:43:17.056Z,27.42
2023-02-09T16:46:02.324Z,31.98
2023-02-09T16:48:37.279Z,37.65
2023-02-09T16:51:05.445Z,27.27
2023-02-09T16:53:47.258Z,28.05
2023-02-09T16:56:15.629Z,24.13
2023-02-09T16:58:53.131Z,32.97
2023-02-09T17:01:25.216Z,31.10
2023-02-09T17:04:12.435Z,33.65
2023-02-09T17:06:40.013Z,37.42
2023-02-09T17:09:30.705Z,48.03
2023-02-09T17:12:04.904Z,34.50
2023-02-09T17:14:32.228Z,32.65
2023-02-09T17:16:59.175Z,34.92
2023-02-09T17:19:29.372Z,35.50
2023-02-09T17:22:00.380Z,48.90
2023-02-09T17:24:27.446Z,57.05
2023-02-09T17:26:54.289Z,41.00
2023-02-09T17:29:22.159Z,35.33
2023-02-09T17:31:53.469Z,31.83
2023-02-09T17:34:27.938Z,32.03
2023-02-09T17:39:38.724Z,25.90
2023-02-09T17:42:05.806Z,30.73
2023-02-09T17:44:45.544Z,29.95
2023-02-09T17:47:19.632Z,32.25
2023-02-09T17:49:46.827Z,29.20
2023-02-09T17:52:52.006Z,26.77
2023-02-09T17:55:32.427Z,27.08
2023-02-09T17:58:00.488Z,30.83
2023-02-09T18:00:28.990Z,38.00
2023-02-09T18:03:00.629Z,34.88
2023-02-09T18:05:28.836Z,34.72
2023-02-09T18:10:38.836Z,31.60
2023-02-09T18:13:07.133Z,32.13
2023-02-09T18:15:36.238Z,28.42
2023-02-09T18:18:05.125Z,31.38
2023-02-09T18:20:34.308Z,28.73
2023-02-09T18:23:04.833Z,31.50
2023-02-09T18:25:44.813Z,35.90
2023-02-09T18:28:36.630Z,30.92
2023-02-09T18:31:06.520Z,42.15
2023-02-09T18:36:24.466Z,38.05
2023-02-09T18:38:54.936Z,39.03
2023-02-09T18:41:24.584Z,41.33
2023-02-09T18:43:59.039Z,42.85
2023-02-09T18:46:31.197Z,49.65
2023-02-09T18:48:58.465Z,42.33
2023-02-09T18:51:27.154Z,47.25
2023-02-09T18:53:54.012Z,34.13
2023-02-09T18:56:22.672Z,38.22
2023-02-09T18:58:54.770Z,37.30
2023-02-09T19:01:23.246Z,39.40
2023-02-09T19:03:56.848Z,35.08
2023-02-09T19:06:25.944Z,36.33
2023-02-09T19:08:55.335Z,32.55
2023-02-09T19:14:22.617Z,31.25
2023-02-09T19:17:11.272Z,39.72
2023-02-09T19:19:41.388Z,37.17
2023-02-09T19:22:10.287Z,33.67
2023-02-09T19:24:43.391Z,30.45
2023-02-09T19:27:12.545Z,34.95
2023-02-09T19:29:44.513Z,35.70
2023-02-09T19:32:15.360Z,31.92
2023-02-09T19:34:43.734Z,54.53
2023-02-09T19:40:07.297Z,29.15
2023-02-09T19:42:35.944Z,33.90
2023-02-09T19:45:03.090Z,40.55
2023-02-09T19:47:30.056Z,32.83
2023-02-09T19:49:58.718Z,28.73
2023-02-09T19:52:28.529Z,34.03
2023-02-09T19:54:57.548Z,27.83
2023-02-09T19:57:25.008Z,35.92
2023-02-09T19:59:53.425Z,36.25
2023-02-09T20:02:20.375Z,30.85
2023-02-09T20:04:47.286Z,35.25
2023-02-09T20:07:14.900Z,27.70
2023-02-09T20:09:42.219Z,30.52
2023-02-09T20:12:09.698Z,35.70
2023-02-09T20:14:37.137Z,31.92
2023-02-09T20:17:05.305Z,30.55
2023-02-09T20:19:37.731Z,34.08
2023-02-09T20:22:06.320Z,31.23
2023-02-09T20:24:34.759Z,30.45
2023-02-09T20:27:05.468Z,32.30
2023-02-09T20:29:36.231Z,33.03
2023-02-09T20:32:06.351Z,33.85
2023-02-09T20:34:35.892Z,34.75
2023-02-09T20:37:02.876Z,31.42
2023-02-09T20:39:29.785Z,30.90
2023-02-09T20:42:17.169Z,36.03
2023-02-09T20:45:07.241Z,32.35
2023-02-09T20:47:38.888Z,31.45
2023-02-09T20:50:06.100Z,26.63
2023-02-09T20:52:33.190Z,32.78
2023-02-09T20:55:00.893Z,33.63
2023-02-09T20:57:43.873Z,35.08
2023-02-09T21:03:01.630Z,31.40
2023-02-09T21:05:28.647Z,26.75
2023-02-09T21:07:55.727Z,29.55
2023-02-09T21:10:23.758Z,39.05
2023-02-09T21:12:50.713Z,34.10
2023-02-09T21:15:17.730Z,35.08
2023-02-09T21:17:49.002Z,29.58
2023-02-09T21:20:17.715Z,30.25
2023-02-09T21:22:44.606Z,28.27
2023-02-09T21:25:12.326Z,25.08
2023-02-09T21:27:39.262Z,31.83
2023-02-09T21:30:09.777Z,32.80
2023-02-09T21:32:38.513Z,32.78
2023-02-09T21:35:10.473Z,27.45
2023-02-09T21:37:39.319Z,25.55
2023-02-09T21:40:08.383Z,25.02
2023-02-09T21:42:37.029Z,28.67
2023-02-09T21:45:04.278Z,24.25
2023-02-09T21:47:33.965Z,25.55
2023-02-09T21:50:01.722Z,29.38
2023-02-09T21:52:30.028Z,31.92
2023-02-09T21:54:57.373Z,27.58
2023-02-09T21:57:26.093Z,27.52
2023-02-09T21:59:53.310Z,30.05
2023-02-09T22:02:20.413Z,24.65
2023-02-09T22:04:48.616Z,23.48
2023-02-09T22:07:17.973Z,27.08
2023-02-09T22:09:44.826Z,21.15
2023-02-09T22:12:11.788Z,23.88
2023-02-09T22:14:38.777Z,24.25
2023-02-09T22:17:05.704Z,22.27
2023-02-09T22:19:32.654Z,21.35
2023-02-09T22:22:01.124Z,18.77
2023-02-09T22:24:28.153Z,16.75
2023-02-09T22:26:55.326Z,16.60
2023-02-09T22:29:22.140Z,17.10
2023-02-09T22:31:49.637Z,17.15
2023-02-09T22:34:16.802Z,15.60
2023-02-09T22:36:44.356Z,18.48
2023-02-09T22:39:11.758Z,15.90
2023-02-09T22:41:38.882Z,15.18
2023-02-09T22:44:08.841Z,21.42
2023-02-09T22:46:38.449Z,21.00
2023-02-09T22:49:15.813Z,16.67
2023-02-09T22:51:43.662Z,15.68
2023-02-09T22:54:13.833Z,18.13
2023-02-09T22:56:41.788Z,17.85
2023-02-09T22:59:11.258Z,14.77
2023-02-09T23:01:38.211Z,15.35
2023-02-09T23:04:05.205Z,15.95
2023-02-09T23:06:32.014Z,17.33
2023-02-09T23:09:04.902Z,17.15
2023-02-09T23:11:32.058Z,13.63
2023-02-09T23:14:10.201Z,15.25
2023-02-09T23:16:39.723Z,18.73
2023-02-09T23:19:08.623Z,13.52
2023-02-09T23:21:41.000Z,13.63
2023-02-09T23:24:09.132Z,12.98
2023-02-09T23:26:36.992Z,16.48
2023-02-09T23:29:06.971Z,11.07
2023-02-09T23:31:34.340Z,13.85
2023-02-09T23:34:01.158Z,12.88
2023-02-09T23:36:30.514Z,12.98
2023-02-09T23:39:04.737Z,13.07
2023-02-09T23:41:31.969Z,12.10
2023-02-09T23:43:59.737Z,11.65
2023-02-09T23:46:28.894Z,13.27
2023-02-09T23:48:56.608Z,14.95
2023-02-09T23:51:34.211Z,14.25
2023-02-09T23:54:03.272Z,12.05
2023-02-09T23:56:36.943Z,12.25
2023-02-09T23:59:06.191Z,11.75
